Heart's Content, Canada
Current Conditions -  °F | °C
As of 5:00 AM on Monday 26 Jan 2015 (Local Time) from CYYT Reporting Station
Broken Clouds Broken Clouds  
Wind Chill: 21°   Ceiling: 2500
Heat Index: 34°   Visibility: 15mi
Dew Point: 28°   Wind: 24mph
Humidity: 81%   Direction: 230°SW
Pressure: 29.47"   Gusts: 35mph
Location:  47.87°N, 53.37°W
Report Text: CYYT 260800Z 23021G30KT 15SM BKN025 01/M02 A2947 RMK SC5 SLP984
Loading
Personal Weather Stations






























Interactive Weather Map New forecast layout! Learn more

10-Day Weather Forecast

Advertisements
Track Severe Weather on mobile